sensor_id;sensor_type;location;lat;lon;timestamp;P1;durP1;ratioP1;P2;durP2;ratioP2
56523;SDS011;42422;47.540;18.712;2022-12-29T00:02:14;7.50;;;3.90;;
56523;SDS011;42422;47.540;18.712;2022-12-29T00:05:38;6.47;;;3.00;;
56523;SDS011;42422;47.540;18.712;2022-12-29T00:09:03;10.87;;;3.97;;
56523;SDS011;42422;47.540;18.712;2022-12-29T00:12:27;7.30;;;4.03;;
56523;SDS011;42422;47.540;18.712;2022-12-29T00:16:09;8.40;;;4.23;;
56523;SDS011;42422;47.540;18.712;2022-12-29T00:19:33;7.60;;;3.67;;
56523;SDS011;42422;47.540;18.712;2022-12-29T00:23:20;7.40;;;3.17;;
56523;SDS011;42422;47.540;18.712;2022-12-29T00:30:42;11.80;;;3.77;;
56523;SDS011;42422;47.540;18.712;2022-12-29T00:34:24;4.90;;;2.77;;
56523;SDS011;42422;47.540;18.712;2022-12-29T00:37:55;10.53;;;4.70;;
56523;SDS011;42422;47.540;18.712;2022-12-29T00:41:40;10.63;;;5.13;;
56523;SDS011;42422;47.540;18.712;2022-12-29T00:45:23;14.53;;;4.73;;
56523;SDS011;42422;47.540;18.712;2022-12-29T00:48:46;8.63;;;3.23;;
56523;SDS011;42422;47.540;18.712;2022-12-29T00:52:11;7.43;;;4.07;;
56523;SDS011;42422;47.540;18.712;2022-12-29T00:55:38;9.33;;;4.13;;
56523;SDS011;42422;47.540;18.712;2022-12-29T00:59:02;10.03;;;4.47;;
56523;SDS011;42422;47.540;18.712;2022-12-29T01:02:27;6.53;;;3.07;;
56523;SDS011;42422;47.540;18.712;2022-12-29T01:05:51;7.97;;;4.00;;
56523;SDS011;42422;47.540;18.712;2022-12-29T01:09:16;5.13;;;3.70;;
56523;SDS011;42422;47.540;18.712;2022-12-29T01:12:40;7.10;;;4.23;;
56523;SDS011;42422;47.540;18.712;2022-12-29T01:16:06;7.40;;;3.67;;
56523;SDS011;42422;47.540;18.712;2022-12-29T01:19:30;5.53;;;3.87;;
56523;SDS011;42422;47.540;18.712;2022-12-29T01:22:54;5.27;;;3.37;;
56523;SDS011;42422;47.540;18.712;2022-12-29T01:26:18;9.03;;;3.97;;
56523;SDS011;42422;47.540;18.712;2022-12-29T01:29:42;15.27;;;5.60;;
56523;SDS011;42422;47.540;18.712;2022-12-29T01:33:06;6.17;;;3.97;;
56523;SDS011;42422;47.540;18.712;2022-12-29T01:36:30;7.03;;;4.70;;
56523;SDS011;42422;47.540;18.712;2022-12-29T01:39:54;7.13;;;4.30;;
56523;SDS011;42422;47.540;18.712;2022-12-29T01:43:18;7.77;;;4.80;;
56523;SDS011;42422;47.540;18.712;2022-12-29T01:47:00;5.27;;;3.77;;
56523;SDS011;42422;47.540;18.712;2022-12-29T01:50:30;6.03;;;3.90;;
56523;SDS011;42422;47.540;18.712;2022-12-29T01:53:54;7.20;;;4.57;;
56523;SDS011;42422;47.540;18.712;2022-12-29T01:57:20;5.40;;;3.43;;
56523;SDS011;42422;47.540;18.712;2022-12-29T02:00:45;9.63;;;4.87;;
56523;SDS011;42422;47.540;18.712;2022-12-29T02:04:09;6.73;;;3.67;;
56523;SDS011;42422;47.540;18.712;2022-12-29T02:07:53;7.73;;;4.23;;
56523;SDS011;42422;47.540;18.712;2022-12-29T02:11:18;15.27;;;4.27;;
56523;SDS011;42422;47.540;18.712;2022-12-29T02:14:43;4.90;;;3.63;;
56523;SDS011;42422;47.540;18.712;2022-12-29T02:40:46;8.80;;;3.90;;
56523;SDS011;42422;47.540;18.712;2022-12-29T02:55:17;4.93;;;4.03;;
56523;SDS011;42422;47.540;18.712;2022-12-29T02:58:40;8.90;;;4.87;;
56523;SDS011;42422;47.540;18.712;2022-12-29T03:02:07;10.00;;;5.27;;
56523;SDS011;42422;47.540;18.712;2022-12-29T03:13:07;7.13;;;3.80;;
56523;SDS011;42422;47.540;18.712;2022-12-29T03:17:05;8.47;;;4.77;;
56523;SDS011;42422;47.540;18.712;2022-12-29T03:20:34;5.93;;;4.40;;
56523;SDS011;42422;47.540;18.712;2022-12-29T03:24:38;7.53;;;4.57;;
56523;SDS011;42422;47.540;18.712;2022-12-29T03:28:07;5.67;;;4.43;;
56523;SDS011;42422;47.540;18.712;2022-12-29T03:31:31;10.47;;;6.17;;
56523;SDS011;42422;47.540;18.712;2022-12-29T03:35:00;6.95;;;4.25;;
56523;SDS011;42422;47.540;18.712;2022-12-29T03:38:27;17.07;;;4.27;;
56523;SDS011;42422;47.540;18.712;2022-12-29T03:41:56;13.47;;;5.00;;
56523;SDS011;42422;47.540;18.712;2022-12-29T03:45:21;4.90;;;3.87;;
56523;SDS011;42422;47.540;18.712;2022-12-29T03:48:45;8.57;;;4.57;;
56523;SDS011;42422;47.540;18.712;2022-12-29T03:52:09;6.57;;;4.70;;
56523;SDS011;42422;47.540;18.712;2022-12-29T03:55:33;9.60;;;4.83;;
56523;SDS011;42422;47.540;18.712;2022-12-29T03:58:56;8.80;;;4.67;;
56523;SDS011;42422;47.540;18.712;2022-12-29T04:02:20;7.37;;;3.97;;
56523;SDS011;42422;47.540;18.712;2022-12-29T04:05:44;15.23;;;4.90;;
56523;SDS011;42422;47.540;18.712;2022-12-29T04:09:09;8.67;;;3.67;;
56523;SDS011;42422;47.540;18.712;2022-12-29T04:12:33;5.40;;;4.73;;
56523;SDS011;42422;47.540;18.712;2022-12-29T04:15:57;10.33;;;4.53;;
56523;SDS011;42422;47.540;18.712;2022-12-29T04:19:21;9.63;;;4.20;;
56523;SDS011;42422;47.540;18.712;2022-12-29T04:23:03;6.00;;;3.70;;
56523;SDS011;42422;47.540;18.712;2022-12-29T04:26:31;10.77;;;4.43;;
56523;SDS011;42422;47.540;18.712;2022-12-29T04:29:55;6.13;;;3.47;;
56523;SDS011;42422;47.540;18.712;2022-12-29T04:33:19;8.03;;;4.30;;
56523;SDS011;42422;47.540;18.712;2022-12-29T04:36:43;6.10;;;4.77;;
56523;SDS011;42422;47.540;18.712;2022-12-29T04:40:07;9.93;;;4.90;;
56523;SDS011;42422;47.540;18.712;2022-12-29T04:43:31;8.23;;;4.63;;
56523;SDS011;42422;47.540;18.712;2022-12-29T04:46:55;5.80;;;3.10;;
56523;SDS011;42422;47.540;18.712;2022-12-29T04:50:19;9.43;;;4.90;;
56523;SDS011;42422;47.540;18.712;2022-12-29T04:53:43;6.60;;;5.27;;
56523;SDS011;42422;47.540;18.712;2022-12-29T04:57:07;13.27;;;6.37;;
56523;SDS011;42422;47.540;18.712;2022-12-29T05:00:31;6.03;;;4.57;;
56523;SDS011;42422;47.540;18.712;2022-12-29T05:03:55;9.70;;;5.53;;
56523;SDS011;42422;47.540;18.712;2022-12-29T05:07:18;7.17;;;3.93;;
56523;SDS011;42422;47.540;18.712;2022-12-29T05:10:46;10.00;;;5.53;;
56523;SDS011;42422;47.540;18.712;2022-12-29T05:14:10;4.27;;;3.87;;
56523;SDS011;42422;47.540;18.712;2022-12-29T05:17:34;6.03;;;3.43;;
56523;SDS011;42422;47.540;18.712;2022-12-29T05:20:58;7.40;;;4.17;;
56523;SDS011;42422;47.540;18.712;2022-12-29T05:24:22;7.60;;;5.03;;
56523;SDS011;42422;47.540;18.712;2022-12-29T05:27:46;11.30;;;4.50;;
56523;SDS011;42422;47.540;18.712;2022-12-29T05:31:10;5.77;;;3.20;;
56523;SDS011;42422;47.540;18.712;2022-12-29T05:34:34;2.67;;;2.30;;
56523;SDS011;42422;47.540;18.712;2022-12-29T05:37:57;10.60;;;4.03;;
56523;SDS011;42422;47.540;18.712;2022-12-29T05:41:21;13.00;;;5.40;;
56523;SDS011;42422;47.540;18.712;2022-12-29T05:44:45;6.90;;;4.30;;
56523;SDS011;42422;47.540;18.712;2022-12-29T05:48:09;8.87;;;4.27;;
56523;SDS011;42422;47.540;18.712;2022-12-29T05:51:33;11.10;;;4.90;;
56523;SDS011;42422;47.540;18.712;2022-12-29T05:54:57;7.60;;;4.50;;
56523;SDS011;42422;47.540;18.712;2022-12-29T05:58:21;12.87;;;5.30;;
56523;SDS011;42422;47.540;18.712;2022-12-29T06:01:45;13.17;;;5.20;;
56523;SDS011;42422;47.540;18.712;2022-12-29T06:05:09;8.47;;;4.87;;
56523;SDS011;42422;47.540;18.712;2022-12-29T06:08:32;9.00;;;5.23;;
56523;SDS011;42422;47.540;18.712;2022-12-29T06:11:56;10.17;;;5.67;;
56523;SDS011;42422;47.540;18.712;2022-12-29T06:15:20;7.60;;;4.03;;
56523;SDS011;42422;47.540;18.712;2022-12-29T06:18:44;7.27;;;4.83;;
56523;SDS011;42422;47.540;18.712;2022-12-29T06:22:09;15.87;;;6.27;;
56523;SDS011;42422;47.540;18.712;2022-12-29T06:25:33;6.70;;;3.20;;
56523;SDS011;42422;47.540;18.712;2022-12-29T06:28:56;10.47;;;3.37;;
56523;SDS011;42422;47.540;18.712;2022-12-29T06:32:20;10.63;;;5.93;;
56523;SDS011;42422;47.540;18.712;2022-12-29T06:35:45;7.90;;;5.33;;
56523;SDS011;42422;47.540;18.712;2022-12-29T06:39:10;8.13;;;4.70;;
56523;SDS011;42422;47.540;18.712;2022-12-29T06:42:34;16.53;;;6.97;;
56523;SDS011;42422;47.540;18.712;2022-12-29T06:46:00;6.77;;;3.47;;
56523;SDS011;42422;47.540;18.712;2022-12-29T06:49:24;10.27;;;5.60;;
56523;SDS011;42422;47.540;18.712;2022-12-29T06:52:48;9.90;;;4.87;;
56523;SDS011;42422;47.540;18.712;2022-12-29T06:56:12;10.70;;;5.97;;
56523;SDS011;42422;47.540;18.712;2022-12-29T06:59:36;9.03;;;5.13;;
56523;SDS011;42422;47.540;18.712;2022-12-29T07:03:00;12.33;;;5.70;;
56523;SDS011;42422;47.540;18.712;2022-12-29T07:06:24;9.57;;;3.70;;
56523;SDS011;42422;47.540;18.712;2022-12-29T07:09:48;11.87;;;6.77;;
56523;SDS011;42422;47.540;18.712;2022-12-29T07:13:12;11.70;;;5.90;;
56523;SDS011;42422;47.540;18.712;2022-12-29T07:16:36;11.53;;;5.10;;
56523;SDS011;42422;47.540;18.712;2022-12-29T07:20:00;23.00;;;10.37;;
56523;SDS011;42422;47.540;18.712;2022-12-29T07:23:23;18.30;;;10.82;;
56523;SDS011;42422;47.540;18.712;2022-12-29T07:26:47;21.13;;;9.75;;
56523;SDS011;42422;47.540;18.712;2022-12-29T07:30:11;17.00;;;8.88;;
56523;SDS011;42422;47.540;18.712;2022-12-29T07:33:40;17.63;;;9.30;;
56523;SDS011;42422;47.540;18.712;2022-12-29T07:37:04;11.05;;;7.50;;
56523;SDS011;42422;47.540;18.712;2022-12-29T07:40:28;22.13;;;10.45;;
56523;SDS011;42422;47.540;18.712;2022-12-29T07:43:52;17.73;;;8.50;;
56523;SDS011;42422;47.540;18.712;2022-12-29T07:47:16;14.65;;;7.97;;
56523;SDS011;42422;47.540;18.712;2022-12-29T07:50:40;16.27;;;7.72;;
56523;SDS011;42422;47.540;18.712;2022-12-29T07:54:04;18.10;;;7.63;;
56523;SDS011;42422;47.540;18.712;2022-12-29T07:57:28;13.45;;;7.80;;
56523;SDS011;42422;47.540;18.712;2022-12-29T08:00:55;15.32;;;6.82;;
56523;SDS011;42422;47.540;18.712;2022-12-29T08:04:19;15.18;;;8.23;;
56523;SDS011;42422;47.540;18.712;2022-12-29T08:07:43;12.27;;;8.48;;
56523;SDS011;42422;47.540;18.712;2022-12-29T08:11:07;11.15;;;7.05;;
56523;SDS011;42422;47.540;18.712;2022-12-29T08:14:33;13.23;;;7.63;;
56523;SDS011;42422;47.540;18.712;2022-12-29T08:17:57;14.38;;;7.43;;
56523;SDS011;42422;47.540;18.712;2022-12-29T08:21:21;12.30;;;7.95;;
56523;SDS011;42422;47.540;18.712;2022-12-29T08:24:45;14.95;;;7.75;;
56523;SDS011;42422;47.540;18.712;2022-12-29T08:28:09;16.92;;;8.05;;
56523;SDS011;42422;47.540;18.712;2022-12-29T08:31:32;12.70;;;7.72;;
56523;SDS011;42422;47.540;18.712;2022-12-29T08:34:56;15.02;;;8.20;;
56523;SDS011;42422;47.540;18.712;2022-12-29T08:38:28;19.55;;;9.23;;
56523;SDS011;42422;47.540;18.712;2022-12-29T08:41:52;15.20;;;9.23;;
56523;SDS011;42422;47.540;18.712;2022-12-29T08:45:16;16.02;;;9.23;;
56523;SDS011;42422;47.540;18.712;2022-12-29T08:48:40;15.25;;;9.32;;
56523;SDS011;42422;47.540;18.712;2022-12-29T08:52:07;15.07;;;8.77;;
56523;SDS011;42422;47.540;18.712;2022-12-29T08:55:31;18.02;;;10.25;;
56523;SDS011;42422;47.540;18.712;2022-12-29T08:58:55;19.17;;;10.98;;
56523;SDS011;42422;47.540;18.712;2022-12-29T09:02:19;14.38;;;8.63;;
56523;SDS011;42422;47.540;18.712;2022-12-29T09:05:43;17.42;;;9.20;;
56523;SDS011;42422;47.540;18.712;2022-12-29T09:09:09;15.73;;;9.23;;
56523;SDS011;42422;47.540;18.712;2022-12-29T09:12:33;15.65;;;9.35;;
56523;SDS011;42422;47.540;18.712;2022-12-29T09:15:57;19.08;;;9.65;;
56523;SDS011;42422;47.540;18.712;2022-12-29T09:19:40;19.45;;;10.68;;
56523;SDS011;42422;47.540;18.712;2022-12-29T09:23:04;18.00;;;9.57;;
56523;SDS011;42422;47.540;18.712;2022-12-29T09:26:28;18.83;;;9.82;;
56523;SDS011;42422;47.540;18.712;2022-12-29T09:29:52;19.10;;;9.73;;
56523;SDS011;42422;47.540;18.712;2022-12-29T09:33:16;19.02;;;10.05;;
56523;SDS011;42422;47.540;18.712;2022-12-29T09:36:40;16.92;;;9.75;;
56523;SDS011;42422;47.540;18.712;2022-12-29T09:40:04;20.33;;;9.75;;
56523;SDS011;42422;47.540;18.712;2022-12-29T09:43:51;17.65;;;9.30;;
56523;SDS011;42422;47.540;18.712;2022-12-29T09:47:17;16.85;;;8.90;;
56523;SDS011;42422;47.540;18.712;2022-12-29T09:50:44;19.33;;;9.50;;
56523;SDS011;42422;47.540;18.712;2022-12-29T09:58:15;21.83;;;9.63;;
56523;SDS011;42422;47.540;18.712;2022-12-29T10:01:44;19.80;;;11.38;;
56523;SDS011;42422;47.540;18.712;2022-12-29T10:09:13;20.92;;;10.35;;
56523;SDS011;42422;47.540;18.712;2022-12-29T10:13:00;17.85;;;10.50;;
56523;SDS011;42422;47.540;18.712;2022-12-29T10:23:52;20.95;;;11.75;;
56523;SDS011;42422;47.540;18.712;2022-12-29T10:27:17;16.13;;;8.55;;
56523;SDS011;42422;47.540;18.712;2022-12-29T10:30:59;19.38;;;9.48;;
56523;SDS011;42422;47.540;18.712;2022-12-29T10:34:26;20.05;;;9.95;;
56523;SDS011;42422;47.540;18.712;2022-12-29T10:37:56;16.92;;;9.13;;
56523;SDS011;42422;47.540;18.712;2022-12-29T10:41:41;13.88;;;8.93;;
56523;SDS011;42422;47.540;18.712;2022-12-29T10:45:12;18.17;;;9.73;;
56523;SDS011;42422;47.540;18.712;2022-12-29T10:48:41;17.30;;;9.55;;
56523;SDS011;42422;47.540;18.712;2022-12-29T10:52:05;19.33;;;10.18;;
56523;SDS011;42422;47.540;18.712;2022-12-29T10:55:36;19.10;;;10.23;;
56523;SDS011;42422;47.540;18.712;2022-12-29T10:59:05;15.55;;;9.45;;
56523;SDS011;42422;47.540;18.712;2022-12-29T11:06:26;18.92;;;10.48;;
56523;SDS011;42422;47.540;18.712;2022-12-29T11:09:51;15.88;;;10.20;;
56523;SDS011;42422;47.540;18.712;2022-12-29T11:13:32;18.65;;;10.18;;
56523;SDS011;42422;47.540;18.712;2022-12-29T11:16:57;19.95;;;10.35;;
56523;SDS011;42422;47.540;18.712;2022-12-29T11:23:56;23.58;;;11.68;;
56523;SDS011;42422;47.540;18.712;2022-12-29T11:27:29;16.42;;;10.00;;
56523;SDS011;42422;47.540;18.712;2022-12-29T11:30:59;21.17;;;10.68;;
56523;SDS011;42422;47.540;18.712;2022-12-29T11:34:34;18.95;;;9.73;;
56523;SDS011;42422;47.540;18.712;2022-12-29T11:38:18;20.92;;;10.45;;
56523;SDS011;42422;47.540;18.712;2022-12-29T11:41:51;19.70;;;10.23;;
56523;SDS011;42422;47.540;18.712;2022-12-29T11:48:44;25.52;;;11.65;;
56523;SDS011;42422;47.540;18.712;2022-12-29T11:55:50;21.40;;;12.18;;
56523;SDS011;42422;47.540;18.712;2022-12-29T12:02:56;22.58;;;11.13;;
56523;SDS011;42422;47.540;18.712;2022-12-29T12:06:26;21.98;;;10.68;;
56523;SDS011;42422;47.540;18.712;2022-12-29T12:10:20;17.83;;;11.48;;
56523;SDS011;42422;47.540;18.712;2022-12-29T12:25:12;16.50;;;9.65;;
56523;SDS011;42422;47.540;18.712;2022-12-29T12:32:18;24.70;;;11.57;;
56523;SDS011;42422;47.540;18.712;2022-12-29T12:50:16;22.55;;;11.52;;
56523;SDS011;42422;47.540;18.712;2022-12-29T12:53:51;20.00;;;9.90;;
56523;SDS011;42422;47.540;18.712;2022-12-29T13:04:46;20.75;;;11.32;;
56523;SDS011;42422;47.540;18.712;2022-12-29T13:15:50;18.77;;;10.52;;
56523;SDS011;42422;47.540;18.712;2022-12-29T13:30:41;18.65;;;9.90;;
56523;SDS011;42422;47.540;18.712;2022-12-29T13:34:13;23.77;;;11.93;;
56523;SDS011;42422;47.540;18.712;2022-12-29T13:41:34;21.20;;;9.73;;
56523;SDS011;42422;47.540;18.712;2022-12-29T13:45:06;21.13;;;10.77;;
56523;SDS011;42422;47.540;18.712;2022-12-29T13:48:55;22.60;;;11.38;;
56523;SDS011;42422;47.540;18.712;2022-12-29T13:56:14;24.60;;;13.13;;
56523;SDS011;42422;47.540;18.712;2022-12-29T14:00:21;31.90;;;11.13;;
56523;SDS011;42422;47.540;18.712;2022-12-29T14:03:48;20.83;;;10.88;;
56523;SDS011;42422;47.540;18.712;2022-12-29T14:07:26;28.15;;;14.27;;
56523;SDS011;42422;47.540;18.712;2022-12-29T14:10:50;29.30;;;15.25;;
56523;SDS011;42422;47.540;18.712;2022-12-29T14:14:25;29.95;;;16.05;;
56523;SDS011;42422;47.540;18.712;2022-12-29T14:21:49;24.55;;;13.48;;
56523;SDS011;42422;47.540;18.712;2022-12-29T14:33:12;21.83;;;11.50;;
56523;SDS011;42422;47.540;18.712;2022-12-29T14:36:43;22.00;;;11.70;;
56523;SDS011;42422;47.540;18.712;2022-12-29T14:40:17;26.98;;;12.80;;
56523;SDS011;42422;47.540;18.712;2022-12-29T14:47:34;30.92;;;17.00;;
56523;SDS011;42422;47.540;18.712;2022-12-29T14:51:16;23.63;;;12.85;;
56523;SDS011;42422;47.540;18.712;2022-12-29T14:54:49;19.65;;;11.95;;
56523;SDS011;42422;47.540;18.712;2022-12-29T15:01:53;23.35;;;12.05;;
56523;SDS011;42422;47.540;18.712;2022-12-29T15:05:44;29.15;;;15.38;;
56523;SDS011;42422;47.540;18.712;2022-12-29T15:09:29;42.00;;;20.55;;
56523;SDS011;42422;47.540;18.712;2022-12-29T15:13:04;25.70;;;12.80;;
56523;SDS011;42422;47.540;18.712;2022-12-29T15:16:48;19.58;;;11.07;;
56523;SDS011;42422;47.540;18.712;2022-12-29T15:23:53;21.30;;;12.15;;
56523;SDS011;42422;47.540;18.712;2022-12-29T15:27:21;22.02;;;11.05;;
56523;SDS011;42422;47.540;18.712;2022-12-29T15:30:56;19.75;;;11.50;;
56523;SDS011;42422;47.540;18.712;2022-12-29T15:34:20;26.00;;;11.00;;
56523;SDS011;42422;47.540;18.712;2022-12-29T15:37:54;27.80;;;12.80;;
56523;SDS011;42422;47.540;18.712;2022-12-29T15:44:48;24.98;;;11.57;;
56523;SDS011;42422;47.540;18.712;2022-12-29T15:48:19;18.02;;;10.50;;
56523;SDS011;42422;47.540;18.712;2022-12-29T15:51:44;23.50;;;12.27;;
56523;SDS011;42422;47.540;18.712;2022-12-29T15:55:16;28.38;;;12.95;;
56523;SDS011;42422;47.540;18.712;2022-12-29T15:58:51;12.05;;;9.13;;
56523;SDS011;42422;47.540;18.712;2022-12-29T16:02:15;19.75;;;10.45;;
56523;SDS011;42422;47.540;18.712;2022-12-29T16:05:39;23.60;;;11.43;;
56523;SDS011;42422;47.540;18.712;2022-12-29T16:09:05;28.98;;;12.52;;
56523;SDS011;42422;47.540;18.712;2022-12-29T16:12:34;17.88;;;9.18;;
56523;SDS011;42422;47.540;18.712;2022-12-29T16:16:25;20.05;;;10.35;;
56523;SDS011;42422;47.540;18.712;2022-12-29T16:23:48;28.30;;;12.73;;
56523;SDS011;42422;47.540;18.712;2022-12-29T16:27:20;19.08;;;9.95;;
56523;SDS011;42422;47.540;18.712;2022-12-29T16:30:46;16.30;;;8.93;;
56523;SDS011;42422;47.540;18.712;2022-12-29T16:34:24;17.08;;;8.95;;
56523;SDS011;42422;47.540;18.712;2022-12-29T16:38:34;20.02;;;11.77;;
56523;SDS011;42422;47.540;18.712;2022-12-29T16:41:39;24.70;;;11.00;;
56523;SDS011;42422;47.540;18.712;2022-12-29T16:45:19;25.53;;;12.33;;
56523;SDS011;42422;47.540;18.712;2022-12-29T16:48:52;7.05;;;4.70;;
56523;SDS011;42422;47.540;18.712;2022-12-29T16:52:22;17.40;;;10.23;;
56523;SDS011;42422;47.540;18.712;2022-12-29T16:55:54;20.93;;;11.47;;
56523;SDS011;42422;47.540;18.712;2022-12-29T16:59:38;21.70;;;12.47;;
56523;SDS011;42422;47.540;18.712;2022-12-29T17:03:02;20.47;;;11.43;;
56523;SDS011;42422;47.540;18.712;2022-12-29T17:06:30;18.57;;;9.70;;
56523;SDS011;42422;47.540;18.712;2022-12-29T17:09:55;22.07;;;12.80;;
56523;SDS011;42422;47.540;18.712;2022-12-29T17:13:38;16.50;;;8.77;;
56523;SDS011;42422;47.540;18.712;2022-12-29T17:20:42;19.00;;;9.60;;
56523;SDS011;42422;47.540;18.712;2022-12-29T17:24:11;22.27;;;11.47;;
56523;SDS011;42422;47.540;18.712;2022-12-29T17:31:07;22.17;;;11.82;;
56523;SDS011;42422;47.540;18.712;2022-12-29T17:34:38;19.00;;;10.13;;
56523;SDS011;42422;47.540;18.712;2022-12-29T17:38:03;17.33;;;9.30;;
56523;SDS011;42422;47.540;18.712;2022-12-29T17:41:33;21.60;;;11.53;;
56523;SDS011;42422;47.540;18.712;2022-12-29T17:45:00;18.95;;;10.15;;
56523;SDS011;42422;47.540;18.712;2022-12-29T17:48:24;23.40;;;11.73;;
56523;SDS011;42422;47.540;18.712;2022-12-29T17:51:48;24.02;;;12.00;;
56523;SDS011;42422;47.540;18.712;2022-12-29T17:55:18;24.30;;;11.43;;
56523;SDS011;42422;47.540;18.712;2022-12-29T17:58:42;26.55;;;11.93;;
56523;SDS011;42422;47.540;18.712;2022-12-29T18:02:20;20.88;;;11.63;;
56523;SDS011;42422;47.540;18.712;2022-12-29T18:05:47;29.65;;;13.07;;
56523;SDS011;42422;47.540;18.712;2022-12-29T18:09:11;11.60;;;7.60;;
56523;SDS011;42422;47.540;18.712;2022-12-29T18:12:45;24.17;;;11.93;;
56523;SDS011;42422;47.540;18.712;2022-12-29T18:16:10;14.50;;;9.60;;
56523;SDS011;42422;47.540;18.712;2022-12-29T18:19:37;23.17;;;11.77;;
56523;SDS011;42422;47.540;18.712;2022-12-29T18:23:02;16.37;;;9.43;;
56523;SDS011;42422;47.540;18.712;2022-12-29T18:26:26;23.80;;;9.33;;
56523;SDS011;42422;47.540;18.712;2022-12-29T18:29:50;20.47;;;11.23;;
56523;SDS011;42422;47.540;18.712;2022-12-29T18:33:15;38.73;;;22.43;;
56523;SDS011;42422;47.540;18.712;2022-12-29T18:36:39;48.70;;;25.63;;
56523;SDS011;42422;47.540;18.712;2022-12-29T18:40:03;23.27;;;13.50;;
56523;SDS011;42422;47.540;18.712;2022-12-29T18:43:27;27.30;;;12.80;;
56523;SDS011;42422;47.540;18.712;2022-12-29T18:46:52;26.73;;;13.35;;
56523;SDS011;42422;47.540;18.712;2022-12-29T18:50:16;24.53;;;12.03;;
56523;SDS011;42422;47.540;18.712;2022-12-29T18:53:41;19.63;;;11.20;;
56523;SDS011;42422;47.540;18.712;2022-12-29T18:57:05;15.73;;;8.73;;
56523;SDS011;42422;47.540;18.712;2022-12-29T19:00:29;32.50;;;12.97;;
56523;SDS011;42422;47.540;18.712;2022-12-29T19:03:54;17.47;;;7.37;;
56523;SDS011;42422;47.540;18.712;2022-12-29T19:07:20;12.50;;;6.60;;
56523;SDS011;42422;47.540;18.712;2022-12-29T19:10:45;13.67;;;8.97;;
56523;SDS011;42422;47.540;18.712;2022-12-29T19:14:12;11.83;;;8.90;;
56523;SDS011;42422;47.540;18.712;2022-12-29T19:17:46;18.37;;;11.03;;
56523;SDS011;42422;47.540;18.712;2022-12-29T19:21:11;17.10;;;9.30;;
56523;SDS011;42422;47.540;18.712;2022-12-29T19:24:35;16.57;;;9.30;;
56523;SDS011;42422;47.540;18.712;2022-12-29T19:27:59;24.83;;;12.63;;
56523;SDS011;42422;47.540;18.712;2022-12-29T19:31:23;16.47;;;10.63;;
56523;SDS011;42422;47.540;18.712;2022-12-29T19:34:47;19.33;;;9.03;;
56523;SDS011;42422;47.540;18.712;2022-12-29T19:38:11;19.73;;;12.23;;
56523;SDS011;42422;47.540;18.712;2022-12-29T19:41:36;22.20;;;12.37;;
56523;SDS011;42422;47.540;18.712;2022-12-29T19:45:01;20.57;;;11.03;;
56523;SDS011;42422;47.540;18.712;2022-12-29T19:48:37;19.33;;;10.93;;
56523;SDS011;42422;47.540;18.712;2022-12-29T19:52:02;23.27;;;13.17;;
56523;SDS011;42422;47.540;18.712;2022-12-29T19:55:26;26.00;;;13.63;;
56523;SDS011;42422;47.540;18.712;2022-12-29T19:58:50;22.17;;;11.70;;
56523;SDS011;42422;47.540;18.712;2022-12-29T20:02:21;19.87;;;10.43;;
56523;SDS011;42422;47.540;18.712;2022-12-29T20:05:48;29.00;;;11.23;;
56523;SDS011;42422;47.540;18.712;2022-12-29T20:09:12;23.43;;;12.77;;
56523;SDS011;42422;47.540;18.712;2022-12-29T20:12:36;23.27;;;13.33;;
56523;SDS011;42422;47.540;18.712;2022-12-29T20:16:04;20.93;;;12.80;;
56523;SDS011;42422;47.540;18.712;2022-12-29T20:19:31;24.43;;;12.67;;
56523;SDS011;42422;47.540;18.712;2022-12-29T20:22:57;24.27;;;12.60;;
56523;SDS011;42422;47.540;18.712;2022-12-29T20:26:25;28.93;;;12.37;;
56523;SDS011;42422;47.540;18.712;2022-12-29T20:29:49;18.55;;;12.05;;
56523;SDS011;42422;47.540;18.712;2022-12-29T20:33:25;28.20;;;14.63;;
56523;SDS011;42422;47.540;18.712;2022-12-29T20:36:50;22.73;;;14.13;;
56523;SDS011;42422;47.540;18.712;2022-12-29T20:40:14;23.47;;;11.50;;
56523;SDS011;42422;47.540;18.712;2022-12-29T20:43:39;18.27;;;11.60;;
56523;SDS011;42422;47.540;18.712;2022-12-29T20:47:03;22.17;;;12.13;;
56523;SDS011;42422;47.540;18.712;2022-12-29T20:50:27;27.80;;;11.80;;
56523;SDS011;42422;47.540;18.712;2022-12-29T20:53:52;20.50;;;12.37;;
56523;SDS011;42422;47.540;18.712;2022-12-29T20:57:16;25.57;;;12.20;;
56523;SDS011;42422;47.540;18.712;2022-12-29T21:00:40;27.67;;;11.93;;
56523;SDS011;42422;47.540;18.712;2022-12-29T21:04:04;22.27;;;11.97;;
56523;SDS011;42422;47.540;18.712;2022-12-29T21:07:28;23.30;;;11.60;;
56523;SDS011;42422;47.540;18.712;2022-12-29T21:10:54;20.23;;;11.17;;
56523;SDS011;42422;47.540;18.712;2022-12-29T21:14:18;24.40;;;13.33;;
56523;SDS011;42422;47.540;18.712;2022-12-29T21:17:42;22.63;;;13.17;;
56523;SDS011;42422;47.540;18.712;2022-12-29T21:21:08;20.33;;;13.90;;
56523;SDS011;42422;47.540;18.712;2022-12-29T21:24:32;31.57;;;18.57;;
56523;SDS011;42422;47.540;18.712;2022-12-29T21:28:07;35.07;;;17.40;;
56523;SDS011;42422;47.540;18.712;2022-12-29T21:31:33;34.42;;;16.40;;
56523;SDS011;42422;47.540;18.712;2022-12-29T21:34:57;33.07;;;16.60;;
56523;SDS011;42422;47.540;18.712;2022-12-29T21:38:22;31.47;;;16.83;;
56523;SDS011;42422;47.540;18.712;2022-12-29T21:41:46;24.90;;;14.57;;
56523;SDS011;42422;47.540;18.712;2022-12-29T21:45:10;23.87;;;14.57;;
56523;SDS011;42422;47.540;18.712;2022-12-29T21:48:34;24.63;;;13.30;;
56523;SDS011;42422;47.540;18.712;2022-12-29T21:51:58;24.47;;;13.30;;
56523;SDS011;42422;47.540;18.712;2022-12-29T21:55:22;20.90;;;11.63;;
56523;SDS011;42422;47.540;18.712;2022-12-29T21:58:47;25.17;;;11.20;;
56523;SDS011;42422;47.540;18.712;2022-12-29T22:02:30;19.83;;;10.80;;
56523;SDS011;42422;47.540;18.712;2022-12-29T22:06:12;20.77;;;12.03;;
56523;SDS011;42422;47.540;18.712;2022-12-29T22:09:55;18.07;;;11.30;;
56523;SDS011;42422;47.540;18.712;2022-12-29T22:13:37;36.17;;;13.77;;
56523;SDS011;42422;47.540;18.712;2022-12-29T22:17:01;26.83;;;13.07;;
56523;SDS011;42422;47.540;18.712;2022-12-29T22:20:26;24.33;;;13.03;;
56523;SDS011;42422;47.540;18.712;2022-12-29T22:23:51;27.10;;;14.97;;
56523;SDS011;42422;47.540;18.712;2022-12-29T22:27:15;20.27;;;13.60;;
56523;SDS011;42422;47.540;18.712;2022-12-29T22:30:39;26.93;;;13.33;;
56523;SDS011;42422;47.540;18.712;2022-12-29T22:34:03;27.23;;;14.10;;
56523;SDS011;42422;47.540;18.712;2022-12-29T22:37:27;28.63;;;13.10;;
56523;SDS011;42422;47.540;18.712;2022-12-29T22:40:56;22.57;;;12.90;;
56523;SDS011;42422;47.540;18.712;2022-12-29T22:44:20;15.63;;;11.15;;
56523;SDS011;42422;47.540;18.712;2022-12-29T22:47:44;20.63;;;14.03;;
56523;SDS011;42422;47.540;18.712;2022-12-29T22:51:08;23.30;;;12.10;;
56523;SDS011;42422;47.540;18.712;2022-12-29T22:54:32;16.90;;;11.03;;
56523;SDS011;42422;47.540;18.712;2022-12-29T22:57:56;22.20;;;12.93;;
56523;SDS011;42422;47.540;18.712;2022-12-29T23:01:20;21.13;;;10.90;;
56523;SDS011;42422;47.540;18.712;2022-12-29T23:04:44;27.67;;;12.30;;
56523;SDS011;42422;47.540;18.712;2022-12-29T23:08:08;19.60;;;11.17;;
56523;SDS011;42422;47.540;18.712;2022-12-29T23:11:32;27.80;;;12.03;;